Kerken UL

DE-0200 · Renania del Norte-Westfalia, Alemania

3 de octubre de 2022

Hora Código Tiempo Temp. Visibilidad Cielo nuboso Viento METAR/SPECI
03:50
V
8 °C 10 km+ - Var Var 2 kt METAR EDLN 030150Z AUTO VRB02KT 9999 // NCD 08/08 Q1026
03:20
V
9 °C 10 km+ - Var Var 2 kt METAR EDLN 030120Z AUTO VRB02KT 9999 // FEW046/// 09/08 Q1026
02:50
V
8 °C 10 km+ - Var Var 2 kt METAR EDLN 030050Z AUTO VRB02KT 9999 // NCD 08/08 Q1026
02:20
V
9 °C 10 km+ - Var Var 2 kt METAR EDLN 030020Z AUTO VRB02KT 9999 // NCD 09/08 Q1025
01:50
V
8 °C 10 km+ - Var Var 2 kt METAR EDLN 022350Z AUTO VRB02KT 9999 // NCD 08/08 Q1025
01:20
V
9 °C 10 km+ - Var Var 2 kt METAR EDLN 022320Z AUTO VRB02KT 9999 // NCD 09/08 Q1025
00:50
V
9 °C 10 km+ - Var Var 2 kt METAR EDLN 022250Z AUTO VRB02KT 9999 // FEW250/// 09/09 Q1025
00:20
V
8 °C 10 km+ - Var Var 2 kt METAR EDLN 022220Z AUTO VRB02KT 9999 // NCD 08/07 Q1025

2 de octubre de 2022

Hora Código Tiempo Temp. Visibilidad Cielo nuboso Viento METAR/SPECI
23:50
V
9 °C 10 km+ - Var Var 1 kt METAR EDLN 022150Z AUTO VRB01KT 9999 // NCD 09/08 Q1024
23:20
V
9 °C 10 km+ - Var Var 1 kt METAR EDLN 022120Z AUTO VRB01KT 9999 // NCD 09/08 Q1024
22:50
V
10 °C 10 km+ - 310° 310° 3 kt METAR EDLN 022050Z AUTO 31003KT 9999 // NCD 10/08 Q1024
22:20
V
11 °C 10 km+ - 300° 300° 5 kt METAR EDLN 022020Z AUTO 30005KT 9999 // FEW035/// 11/09 Q1023
21:50
V
11 °C 10 km+ - 290° 290° 3 kt METAR EDLN 021950Z AUTO 29003KT 9999 // FEW035/// 11/09 Q1023
21:20
V
12 °C 10 km+ - 280° 280° 4 kt METAR EDLN 021920Z AUTO 28004KT 240V330 9999 // NCD 12/09 Q1022
20:50
V
12 °C 10 km+ - 290° 290° 4 kt METAR EDLN 021850Z AUTO 29004KT 9999 // NCD 12/09 Q1022
20:20
V
12 °C 10 km+ - 300° 300° 6 kt METAR EDLN 021820Z 30006KT CAVOK 12/09 Q1022
19:50
V
13 °C 10 km+ - 290° 290° 4 kt METAR EDLN 021750Z 29004KT CAVOK 13/10 Q1021
19:20
V
14 °C 10 km+ - 290° 290° 5 kt METAR EDLN 021720Z 29005KT CAVOK 14/11 Q1020
18:50
V
15 °C 10 km+ - 280° 280° 6 kt METAR EDLN 021650Z 28006KT 9999 FEW034 15/11 Q1020
18:20
V
16 °C 10 km+ - 290° 290° 7 kt METAR EDLN 021620Z 29007KT 240V310 9999 FEW033 16/11 Q1019
17:50
V
17 °C 10 km+ - 280° 280° 7 kt METAR EDLN 021550Z 28007KT 220V320 CAVOK 17/11 Q1019
17:20
V
17 °C 10 km+ - 280° 280° 6 kt METAR EDLN 021520Z 28006KT 210V320 9999 FEW026 17/12 Q1019
16:50
V
17 °C 10 km+ - 280° 280° 7 kt METAR EDLN 021450Z 28007KT 230V310 CAVOK 17/12 Q1019
16:20
V
16 °C 10 km+ - 290° 290° 8 kt METAR EDLN 021420Z 29008KT 250V310 9999 SCT049 16/11 Q1019
15:50
V
17 °C 10 km+ - 270° 270° 6 kt METAR EDLN 021350Z 27006KT 190V310 9999 FEW033 17/11 Q1018
15:20
V
17 °C 10 km+ - 270° 270° 6 kt METAR EDLN 021320Z 27006KT 230V310 9999 FEW030 17/10 Q1018
14:50
V
18 °C 10 km+ - 260° 260° 5 kt METAR EDLN 021250Z 26005KT 200V310 9999 FEW024 18/11 Q1018
14:20
V
17 °C 10 km+ - 290° 290° 7 kt METAR EDLN 021220Z 29007KT 240V320 9999 FEW021 17/13 Q1018
13:50
V
16 °C 10 km+ - 290° 290° 6 kt METAR EDLN 021150Z 29006KT 240V310 9999 SCT020 16/12 Q1018
13:20
V
16 °C 10 km+ - 280° 280° 6 kt METAR EDLN 021120Z 28006KT 220V310 9999 SCT014 16/12 Q1018
12:50
M
16 °C 10 km+ 1.500 ft 260° 260° 5 kt METAR EDLN 021050Z 26005KT 210V310 9999 FEW013 BKN015 16/13 Q1018
12:20
M
15 °C 10 km+ 1.800 ft 270° 270° 6 kt METAR EDLN 021020Z 27006KT 180V310 9999 SCT012 BKN018 15/13 Q1018
11:50
V
15 °C 10 km+ - 250° 250° 6 kt METAR EDLN 020950Z 25006KT 190V290 9999 FEW009 SCT011 15/13 Q1017
11:20
V
14 °C 10 km+ 3.800 ft 240° 240° 4 kt METAR EDLN 020920Z 24004KT 190V280 9999 SCT009 BKN038 14/13 Q1017
10:50
M
14 °C 5 km 1.100 ft 260° 260° 5 kt METAR EDLN 020850Z 26005KT 210V320 5000 -RA BKN011 14/13 Q1017
10:20
M
14 °C 10 km+ 1.700 ft 250° 250° 5 kt METAR EDLN 020820Z 25005KT 190V310 9999 SCT011 BKN017 14/13 Q1017
09:50
M
14 °C 10 km+ 1.600 ft 250° 250° 4 kt METAR EDLN 020750Z 25004KT 190V310 9999 SCT011 BKN016 14/13 Q1016
09:20
M
14 °C 10 km+ 1.100 ft 240° 240° 6 kt METAR EDLN 020720Z 24006KT 200V300 9999 BKN011 BKN020 14/13 Q1016
08:50
M
14 °C 10 km+ 1.300 ft 240° 240° 6 kt METAR EDLN 020650Z 24006KT 200V290 9999 SCT011 BKN013 14/13 Q1016
08:20
M
14 °C 10 km+ 1.100 ft 240° 240° 5 kt METAR EDLN 020620Z 24005KT 200V300 9999 BKN011 OVC019 14/13 Q1016
07:50
I
14 °C 10 km+ 900 ft 260° 260° 3 kt METAR EDLN 020550Z 26003KT 210V300 9999 FEW007 BKN009 OVC011 14/13 Q1015
07:20
I
14 °C 7 km 800 ft Var Var 3 kt METAR EDLN 020520Z AUTO VRB03KT 7000 // BKN008/// OVC020/// 14/13 Q1015
06:50
M
14 °C 10 km+ 1.100 ft 240° 240° 4 kt METAR EDLN 020450Z AUTO 24004KT 190V290 9999 // SCT009/// BKN011/// OVC021/// 14/13 Q1015
06:20
M
14 °C 10 km+ 1.400 ft 250° 250° 5 kt METAR EDLN 020420Z AUTO 25005KT 200V320 9999 // FEW011/// BKN014/// OVC024/// 14/13 Q1015
05:50
M
14 °C 10 km+ 1.400 ft 240° 240° 4 kt METAR EDLN 020350Z AUTO 24004KT 190V300 9999 // BKN014/// BKN023/// OVC075/// 14/13 Q1015
05:20
I
14 °C 3,6 km 5.000 ft 230° 230° 9 kt METAR EDLN 020320Z AUTO 23009KT 200V280 3600 // FEW014/// BKN050/// OVC062/// 14/13 Q1015
04:50
V
14 °C 10 km+ 18.000 ft 230° 230° 6 kt METAR EDLN 020250Z AUTO 23006KT 180V290 9999 // FEW016/// SCT072/// OVC180/// 14/12 Q1015
04:20
V
14 °C 10 km+ 19.000 ft 230° 230° 7 kt METAR EDLN 020220Z AUTO 23007KT 190V260 9999 // FEW014/// OVC190/// 14/12 Q1015
03:50
V
14 °C 10 km+ 20.000 ft 230° 230° 7 kt METAR EDLN 020150Z AUTO 23007KT 190V290 9999 // FEW015/// BKN200/// OVC230/// 14/12 Q1015
03:20
V
14 °C 10 km+ 20.000 ft Var Var 6 kt METAR EDLN 020120Z AUTO VRB06KT 9999 // FEW063/// BKN200/// 14/12 Q1015
02:50
V
14 °C 10 km+ 21.000 ft 230° 230° 6 kt METAR EDLN 020050Z AUTO 23006KT 200V280 9999 // SCT083/// BKN210/// 14/12 Q1015
02:20
V
13 °C 10 km+ 7.800 ft 220° 220° 5 kt METAR EDLN 020020Z AUTO 22005KT 190V260 9999 // FEW018/// BKN078/// BKN240/// 13/12 Q1015
01:50
V
13 °C 10 km+ - 230° 230° 6 kt METAR EDLN 012350Z AUTO 23006KT 200V260 9999 // FEW230/// 13/11 Q1015
01:20
V
13 °C 10 km+ - 220° 220° 5 kt METAR EDLN 012320Z AUTO 22005KT 180V270 9999 // NCD 13/11 Q1014
00:50
V
13 °C 10 km+ - 220° 220° 6 kt METAR EDLN 012250Z AUTO 22006KT 190V260 9999 // NCD 13/10 Q1014
00:20
V
12 °C 10 km+ - 220° 220° 5 kt METAR EDLN 012220Z AUTO 22005KT 170V300 9999 // NCD 12/10 Q1014

1 de octubre de 2022

Hora Código Tiempo Temp. Visibilidad Cielo nuboso Viento METAR/SPECI
23:50
V
12 °C 10 km+ - 210° 210° 4 kt METAR EDLN 012150Z AUTO 21004KT 160V250 9999 // NCD 12/10 Q1014
23:20
V
12 °C 10 km+ - 210° 210° 3 kt METAR EDLN 012120Z AUTO 21003KT 160V260 9999 // NCD 12/10 Q1014
22:50
V
12 °C 10 km+ - 210° 210° 3 kt METAR EDLN 012050Z AUTO 21003KT 170V240 9999 // FEW077/// 12/10 Q1013
22:20
V
12 °C 10 km+ - 230° 230° 4 kt METAR EDLN 012020Z AUTO 23004KT 200V270 9999 // NCD 12/10 Q1013
21:50
V
13 °C 10 km+ - 240° 240° 3 kt METAR EDLN 011950Z AUTO 24003KT 190V270 9999 // NCD 13/10 Q1013
21:20
V
13 °C 10 km+ - 240° 240° 4 kt METAR EDLN 011920Z AUTO 24004KT 200V270 9999 // NCD 13/09 Q1012
20:50
V
13 °C 10 km+ - 250° 250° 4 kt METAR EDLN 011850Z AUTO 25004KT 200V290 9999 // NCD 13/10 Q1012
20:20
V
14 °C 10 km+ - 250° 250° 4 kt METAR EDLN 011820Z 25004KT 210V290 CAVOK 14/09 Q1011
19:50
V
15 °C 10 km+ - 260° 260° 4 kt METAR EDLN 011750Z 26004KT 220V300 CAVOK 15/09 Q1011
19:20
V
15 °C 10 km+ - 260° 260° 5 kt METAR EDLN 011720Z 26005KT 210V310 9999 FEW035 15/09 Q1010
18:50
V
16 °C 10 km+ - 260° 260° 4 kt METAR EDLN 011650Z 26004KT 220V310 9999 FEW039 16/09 Q1009
18:20
V
16 °C 10 km+ - 270° 270° 6 kt METAR EDLN 011620Z 27006KT 190V320 CAVOK 16/10 Q1009
17:50
V
17 °C 10 km+ - 280° 280° 9 kt METAR EDLN 011550Z 28009KT 230V320 9999 FEW036 17/10 Q1009
17:20
V
17 °C 10 km+ - 290° 290° 9 kt METAR EDLN 011520Z 29009KT 240V310 9999 SCT040 17/10 Q1008
16:50
V
17 °C 10 km+ - 300° 300° 10 kt METAR EDLN 011450Z 30010KT 260V320 9999 SCT038 17/11 Q1008
16:20
V
18 °C 10 km+ 3.300 ft 290° 290° 11 kt METAR EDLN 011420Z 29011KT 250V320 9999 BKN033TCU 18/11 Q1007
15:50
V
18 °C 10 km+ 3.500 ft 280° 280° 11 kt METAR EDLN 011350Z 28011KT 230V310 9999 VCSH BKN035TCU 18/10 Q1007
15:20
V
18 °C 10 km+ 3.400 ft 270° 270° 8 kt METAR EDLN 011320Z 27008KT 220V310 9999 BKN034TCU 18/11 Q1006
14:50
V
18 °C 10 km+ - 250° 250° 9 kt METAR EDLN 011250Z 25009KT 210V310 9999 VCSH SCT031CB 18/12 Q1006
14:20
V
18 °C 10 km+ - 240° 240° 10 kt METAR EDLN 011220Z 24010KT 200V320 9999 VCSH SCT028CB 18/12 Q1006
13:50
V
17 °C 10 km+ - 250° 250° 9 - 21 kt METAR EDLN 011150Z 25009G21KT 200V300 9999 VCSH SCT021CB 17/12 Q1006
13:20
M
16 °C 10 km+ 2.100 ft Var Var 7 kt METAR EDLN 011120Z VRB07KT 9999 BKN021 16/13 Q1005
12:50
M
17 °C 10 km+ 1.800 ft 240° 240° 8 kt METAR EDLN 011050Z 24008KT 190V320 9999 BKN018 17/14 Q1005
12:20
V
15 °C 10 km+ - 250° 250° 5 kt METAR EDLN 011020Z 25005KT 180V310 CAVOK 15/13 Q1005
11:50
V
14 °C 10 km+ - 230° 230° 6 kt METAR EDLN 010950Z 23006KT 190V280 9999 -RA FEW012 SCT034 14/13 Q1004
11:20
V
13 °C 10 km+ 3.400 ft 220° 220° 9 kt METAR EDLN 010920Z 22009KT 190V260 9999 -SHRA FEW012 BKN034CB 13/12 Q1004
10:50
M
14 °C 10 km+ 1.600 ft 230° 230° 8 kt METAR EDLN 010850Z 23008KT 180V280 9999 BKN016 14/12 Q1004
10:20
M
14 °C 10 km+ 2.300 ft 220° 220° 6 kt METAR EDLN 010820Z 22006KT 180V280 9999 FEW013 BKN023 14/12 Q1004
09:50
M
13 °C 10 km+ 1.800 ft 230° 230° 6 kt METAR EDLN 010750Z 23006KT 190V280 9999 FEW014 BKN018 13/12 Q1003
09:20
M
13 °C 10 km+ 1.600 ft 230° 230° 9 kt METAR EDLN 010720Z 23009KT 180V270 9999 BKN016 13/11 Q1003
08:50
M
13 °C 10 km+ 1.700 ft 220° 220° 8 kt METAR EDLN 010650Z 22008KT 190V260 9999 BKN017 OVC031 13/11 Q1003
08:20
M
12 °C 10 km+ 1.800 ft 220° 220° 8 kt METAR EDLN 010620Z 22008KT 170V260 9999 BKN018 OVC025 12/11 Q1003
07:50
M
12 °C 10 km+ 1.800 ft 210° 210° 10 kt METAR EDLN 010550Z 21010KT 170V260 9999 -RA OVC018 12/11 Q1002
07:20
M
12 °C 10 km+ 1.900 ft 210° 210° 9 kt METAR EDLN 010520Z AUTO 21009KT 160V250 9999 // OVC019/// 12/10 Q1002
06:50
M
12 °C 10 km+ 2.000 ft 180° 180° 7 kt METAR EDLN 010450Z AUTO 18007KT 120V230 9999 // BKN020/// OVC033/// 12/10 Q1002
06:20
M
11 °C 10 km+ 1.900 ft 170° 170° 7 kt METAR EDLN 010420Z AUTO 17007KT 120V220 9999 // BKN019/// OVC110/// 11/10 Q1002
05:50
M
11 °C 10 km+ 1.800 ft 170° 170° 9 kt METAR EDLN 010350Z AUTO 17009KT 130V220 9999 // SCT015/// OVC018/// 11/10 Q1002
05:20
M
11 °C 5 km 1.600 ft 170° 170° 7 kt METAR EDLN 010320Z AUTO 17007KT 120V200 5000 // FEW012/// BKN016/// OVC022/// 11/10 Q1003
04:50
M
11 °C 10 km+ 2.200 ft 180° 180° 8 kt METAR EDLN 010250Z AUTO 18008KT 130V210 9999 // OVC022/// 11/10 Q1003
04:20
M
11 °C 10 km+ 2.800 ft 190° 190° 9 kt METAR EDLN 010220Z AUTO 19009KT 130V230 9999 // FEW021/// BKN028/// OVC068/// 11/10 Q1004
03:50
V
11 °C 10 km+ 8.700 ft 180° 180° 10 kt METAR EDLN 010150Z AUTO 18010KT 150V210 9999 // BKN087/// OVC099/// 11/09 Q1004
03:20
V
11 °C 10 km+ 7.500 ft 170° 170° 10 kt METAR EDLN 010120Z AUTO 17010KT 140V200 9999 // OVC075/// 11/09 Q1004
02:50
V
11 °C 10 km+ 7.500 ft 190° 190° 11 kt METAR EDLN 010050Z AUTO 19011KT 9999 // FEW066/// OVC075/// 11/09 Q1005
02:20
V
12 °C 10 km+ 7.000 ft 200° 200° 9 kt METAR EDLN 010020Z AUTO 20009KT 160V240 9999 // OVC070/// 12/09 Q1006
01:50
V
12 °C 10 km+ 6.700 ft 190° 190° 8 kt METAR EDLN 302350Z AUTO 19008KT 160V230 9999 // OVC067/// 12/08 Q1006
01:20
V
13 °C 10 km+ 10.000 ft 180° 180° 8 kt METAR EDLN 302320Z AUTO 18008KT 130V210 9999 // BKN100/// OVC130/// 13/08 Q1007
00:50
V
12 °C 10 km+ 13.000 ft 160° 160° 6 kt METAR EDLN 302250Z AUTO 16006KT 120V210 9999 // OVC130/// 12/08 Q1007
00:20
V
12 °C 10 km+ 16.000 ft 160° 160° 5 kt METAR EDLN 302220Z AUTO 16005KT 130V210 9999 // SCT140/// OVC160/// 12/07 Q1007

30 de septiembre de 2022

Hora Código Tiempo Temp. Visibilidad Cielo nuboso Viento METAR/SPECI
23:50
V
12 °C 10 km+ 17.000 ft 170° 170° 7 kt METAR EDLN 302150Z AUTO 17007KT 130V200 9999 // OVC170/// 12/07 Q1007
23:20
V
12 °C 10 km+ 21.000 ft 170° 170° 7 kt METAR EDLN 302120Z AUTO 17007KT 130V200 9999 // OVC210/// 12/07 Q1008
22:50
V
12 °C 10 km+ 22.000 ft 170° 170° 7 kt METAR EDLN 302050Z AUTO 17007KT 140V200 9999 // BKN220/// BKN250/// 12/07 Q1008
22:20
V
12 °C 10 km+ - 180° 180° 5 kt METAR EDLN 302020Z AUTO 18005KT 150V210 9999 // NCD 12/07 Q1009
21:50
V
12 °C 10 km+ - 180° 180° 5 kt METAR EDLN 301950Z AUTO 18005KT 140V210 9999 // NCD 12/07 Q1009
21:20
V
12 °C 10 km+ - 180° 180° 4 kt METAR EDLN 301920Z AUTO 18004KT 140V200 9999 // NCD 12/07 Q1009
20:50
V
12 °C 10 km+ - 190° 190° 4 kt METAR EDLN 301850Z AUTO 19004KT 160V220 9999 // FEW062/// 12/07 Q1009
20:20
V
10 °C 10 km+ - 180° 180° 3 kt METAR EDLN 301820Z 18003KT CAVOK 10/08 Q1009
19:50
V
10 °C 10 km+ - Var Var 2 kt METAR EDLN 301750Z VRB02KT CAVOK 10/07 Q1009
19:20
V
12 °C 10 km+ - 210° 210° 4 kt METAR EDLN 301720Z 21004KT CAVOK 12/07 Q1009
Datos más antiguos

Nosotros y terceros seguimos tu comportamiento en Internet en nuestro sitio web con cookies. Si continúas, asumimos que estás de acuerdo con nuestra política de cookies. Más información